Charleston, IL

2:06 AM CDT on September 03, 2014 (GMT -0500)
EIU Campus | Change Station
CLOSE
Current Station
Personal Weather Station
Location: Charleston, IL
Elevation: 714 ft
Nearby Weather Stations

Elev 714 ft 39.48 °N, 88.18 °W | Updated 2 seconds ago

Partly Cloudy
Partly Cloudy
79.9 °F
Feels Like 82 °F
N
255.3
Wind Variable Wind from North
Gusts 0.0 mph

Today
High -- | Low -- °F
--% Chance of Precip.
Yesterday
High -- | Low -- °F
Precip. -- in
6:22 AM 7:20 PM
First Quarter, 59% visible
Pressure 29.99 in
Visibility 10.0 miles
Clouds Few 4700 ft
Heat Index 82 °F
Dew Point 67 °F
Humidity 64%
Rainfall 0.00 in
Snow Depth Not available.
UV 0.0 out of 12
Pollen 3.50 out of 12
Air Quality Not available.
Flu Activity Not available.
METAR KMTO 030653Z AUTO 24005KT 10SM FEW047 21/19 A3001 RMK AO2 SLP156 T02060189

More Conditions Fewer Conditions

Pressure 29.99 in
Visibility 10.0 miles
Clouds Few 4700 ft
Heat Index 82 °F
Dew Point 67 °F
Humidity 64%
Rainfall 0.00 in
Snow Depth Not available.
UV 0.0 out of 12
Pollen 3.50 out of 12
Air Quality Not available.
Flu Activity Not available.
METAR KMTO 030653Z AUTO 24005KT 10SM FEW047 21/19 A3001 RMK AO2 SLP156 T02060189

More Conditions Fewer Conditions

10-Day Weather Forecast

Almanac

Astronomy

Sep. 03, 2014 Rise Set
Actual Time 6:22 AM CDT 7:20 PM CDT
Civil Twilight 5:55 AM CDT 7:47 PM CDT
Nautical Twilight 5:22 AM CDT 8:20 PM CDT
Astronomical Twilight 4:48 AM CDT 8:54 PM CDT
Moon 3:01 PM CDT 12:17 AM CDT
Length of Visible Light 13h 52m
Length of Day
12h 57m
Tomorrow will be 2m 30s shorter.
First Quarter, 59% of the Moon is Illuminated
Today
First Quarter
Sep 8
Full
Sep 15
Last Quarter
Sep 24
New
Oct 1
First Quarter

Today's Extremes

State Highs State Lows

Community

WunderPhotos

Upload Photos

1,749,888 photos uploaded!

Nearby

Snow Depth

Station Depth Elevation
No new snow has been reported.

Earthquake Activity

City Distance Mag. Time & Date
No recent earthquake activity has been reported nearby.
Minimum magnitude displayed is 2.5.

Coastal Water Temperatures

Place Temperature
No Stations Reporting

Nearby Weather Stations